sensor_id;sensor_type;location;lat;lon;timestamp;pressure;altitude;pressure_sealevel;temperature;humidity
9139;BME280;4604;48.616;9.548;2022-12-13T00:01:35;96223.75;;;-5.26;92.19
9139;BME280;4604;48.616;9.548;2022-12-13T00:04:04;96222.97;;;-5.28;92.47
9139;BME280;4604;48.616;9.548;2022-12-13T00:06:31;96195.97;;;-5.40;92.37
9139;BME280;4604;48.616;9.548;2022-12-13T00:08:58;96216.31;;;-5.34;92.17
9139;BME280;4604;48.616;9.548;2022-12-13T00:11:26;96218.03;;;-5.34;91.62
9139;BME280;4604;48.616;9.548;2022-12-13T00:13:55;96206.31;;;-5.42;91.62
9139;BME280;4604;48.616;9.548;2022-12-13T00:16:23;96208.22;;;-5.25;89.39
9139;BME280;4604;48.616;9.548;2022-12-13T00:18:52;96207.53;;;-5.28;89.59
9139;BME280;4604;48.616;9.548;2022-12-13T00:21:21;96200.47;;;-5.23;89.04
9139;BME280;4604;48.616;9.548;2022-12-13T00:23:48;96193.06;;;-5.31;89.12
9139;BME280;4604;48.616;9.548;2022-12-13T00:26:17;96199.50;;;-5.21;89.13
9139;BME280;4604;48.616;9.548;2022-12-13T00:28:44;96204.59;;;-5.19;88.49
9139;BME280;4604;48.616;9.548;2022-12-13T00:31:15;96202.84;;;-5.19;88.51
9139;BME280;4604;48.616;9.548;2022-12-13T00:33:42;96199.63;;;-5.24;87.85
9139;BME280;4604;48.616;9.548;2022-12-13T00:36:09;96205.28;;;-5.16;87.69
9139;BME280;4604;48.616;9.548;2022-12-13T00:38:36;96194.09;;;-5.14;86.93
9139;BME280;4604;48.616;9.548;2022-12-13T00:41:09;96187.16;;;-5.12;86.82
9139;BME280;4604;48.616;9.548;2022-12-13T00:43:36;96197.03;;;-5.02;86.54
9139;BME280;4604;48.616;9.548;2022-12-13T00:46:03;96194.31;;;-4.99;85.76
9139;BME280;4604;48.616;9.548;2022-12-13T00:48:31;96186.56;;;-4.97;86.09
9139;BME280;4604;48.616;9.548;2022-12-13T00:50:58;96187.38;;;-4.97;85.52
9139;BME280;4604;48.616;9.548;2022-12-13T00:53:25;96180.44;;;-4.95;85.39
9139;BME280;4604;48.616;9.548;2022-12-13T00:55:51;96181.13;;;-4.91;84.91
9139;BME280;4604;48.616;9.548;2022-12-13T00:58:18;96173.22;;;-4.86;83.68
9139;BME280;4604;48.616;9.548;2022-12-13T01:00:45;96178.31;;;-4.85;83.43
9139;BME280;4604;48.616;9.548;2022-12-13T01:03:12;96165.78;;;-4.92;84.11
9139;BME280;4604;48.616;9.548;2022-12-13T01:05:47;96173.19;;;-4.85;83.65
9139;BME280;4604;48.616;9.548;2022-12-13T01:08:13;96158.63;;;-4.86;83.32
9139;BME280;4604;48.616;9.548;2022-12-13T01:10:42;96165.81;;;-4.74;81.91
9139;BME280;4604;48.616;9.548;2022-12-13T01:13:09;96149.44;;;-4.91;82.10
9139;BME280;4604;48.616;9.548;2022-12-13T01:15:39;96169.03;;;-4.68;81.85
9139;BME280;4604;48.616;9.548;2022-12-13T01:18:06;96150.38;;;-4.74;81.45
9139;BME280;4604;48.616;9.548;2022-12-13T01:20:33;96162.13;;;-4.87;82.45
9139;BME280;4604;48.616;9.548;2022-12-13T01:23:01;96161.53;;;-4.93;83.50
9139;BME280;4604;48.616;9.548;2022-12-13T01:25:28;96160.19;;;-4.82;82.50
9139;BME280;4604;48.616;9.548;2022-12-13T01:27:54;96150.72;;;-5.02;83.56
9139;BME280;4604;48.616;9.548;2022-12-13T01:30:21;96164.16;;;-4.95;82.83
9139;BME280;4604;48.616;9.548;2022-12-13T01:32:48;96164.47;;;-5.03;83.40
9139;BME280;4604;48.616;9.548;2022-12-13T01:35:15;96168.41;;;-4.94;83.41
9139;BME280;4604;48.616;9.548;2022-12-13T01:37:41;96146.28;;;-4.98;82.89
9139;BME280;4604;48.616;9.548;2022-12-13T01:40:11;96161.19;;;-4.86;82.27
9139;BME280;4604;48.616;9.548;2022-12-13T01:42:38;96163.06;;;-4.89;82.67
9139;BME280;4604;48.616;9.548;2022-12-13T01:45:22;96158.28;;;-4.78;80.65
9139;BME280;4604;48.616;9.548;2022-12-13T01:47:53;96157.63;;;-5.02;82.16
9139;BME280;4604;48.616;9.548;2022-12-13T01:50:26;96158.34;;;-5.21;83.88
9139;BME280;4604;48.616;9.548;2022-12-13T01:52:55;96142.66;;;-5.14;82.43
9139;BME280;4604;48.616;9.548;2022-12-13T01:55:24;96157.66;;;-5.04;82.47
9139;BME280;4604;48.616;9.548;2022-12-13T01:57:54;96140.56;;;-4.84;79.91
9139;BME280;4604;48.616;9.548;2022-12-13T02:00:24;96152.00;;;-4.91;80.82
9139;BME280;4604;48.616;9.548;2022-12-13T02:02:52;96129.41;;;-5.05;80.67
9139;BME280;4604;48.616;9.548;2022-12-13T02:05:22;96143.00;;;-5.02;81.05
9139;BME280;4604;48.616;9.548;2022-12-13T02:07:52;96132.06;;;-5.07;81.05
9139;BME280;4604;48.616;9.548;2022-12-13T02:10:19;96142.81;;;-4.97;80.16
9139;BME280;4604;48.616;9.548;2022-12-13T02:12:47;96128.25;;;-4.98;79.24
9139;BME280;4604;48.616;9.548;2022-12-13T02:15:16;96133.22;;;-4.93;78.89
9139;BME280;4604;48.616;9.548;2022-12-13T02:17:55;96133.94;;;-4.90;78.34
9139;BME280;4604;48.616;9.548;2022-12-13T02:26:53;96128.03;;;-4.92;76.19
9139;BME280;4604;48.616;9.548;2022-12-13T02:29:56;96121.44;;;-4.79;75.51
9139;BME280;4604;48.616;9.548;2022-12-13T02:32:31;96121.53;;;-4.80;75.45
9139;BME280;4604;48.616;9.548;2022-12-13T02:35:04;96122.84;;;-4.71;75.49
9139;BME280;4604;48.616;9.548;2022-12-13T02:37:43;96119.06;;;-4.83;75.68
9139;BME280;4604;48.616;9.548;2022-12-13T02:40:17;96122.34;;;-4.80;75.66
9139;BME280;4604;48.616;9.548;2022-12-13T02:42:51;96126.28;;;-4.52;74.23
9139;BME280;4604;48.616;9.548;2022-12-13T02:45:24;96121.00;;;-4.68;74.04
9139;BME280;4604;48.616;9.548;2022-12-13T02:47:56;96112.59;;;-4.73;73.99
9139;BME280;4604;48.616;9.548;2022-12-13T02:50:24;96121.25;;;-4.74;74.32
9139;BME280;4604;48.616;9.548;2022-12-13T02:52:51;96120.13;;;-4.68;73.37
9139;BME280;4604;48.616;9.548;2022-12-13T02:55:20;96119.94;;;-4.64;73.81
9139;BME280;4604;48.616;9.548;2022-12-13T02:57:46;96118.63;;;-4.72;73.95
9139;BME280;4604;48.616;9.548;2022-12-13T03:00:15;96122.78;;;-4.70;73.58
9139;BME280;4604;48.616;9.548;2022-12-13T03:02:54;96113.72;;;-4.79;74.17
9139;BME280;4604;48.616;9.548;2022-12-13T03:05:29;96084.63;;;-5.00;74.29
9139;BME280;4604;48.616;9.548;2022-12-13T03:08:21;96093.53;;;-4.88;74.38
9139;BME280;4604;48.616;9.548;2022-12-13T03:10:55;96093.75;;;-4.92;74.20
9139;BME280;4604;48.616;9.548;2022-12-13T03:13:27;96080.75;;;-5.10;73.74
9139;BME280;4604;48.616;9.548;2022-12-13T03:16:19;96085.38;;;-4.98;73.06
9139;BME280;4604;48.616;9.548;2022-12-13T03:18:48;96098.13;;;-4.76;71.96
9139;BME280;4604;48.616;9.548;2022-12-13T03:21:17;96101.03;;;-4.83;72.24
9139;BME280;4604;48.616;9.548;2022-12-13T03:23:44;96096.03;;;-4.86;72.41
9139;BME280;4604;48.616;9.548;2022-12-13T03:26:13;96099.44;;;-4.86;73.06
9139;BME280;4604;48.616;9.548;2022-12-13T03:28:40;96096.81;;;-4.84;72.03
9139;BME280;4604;48.616;9.548;2022-12-13T03:31:07;96096.69;;;-4.81;71.70
9139;BME280;4604;48.616;9.548;2022-12-13T03:33:34;96081.22;;;-4.81;71.80
9139;BME280;4604;48.616;9.548;2022-12-13T03:36:01;96094.09;;;-4.81;72.33
9139;BME280;4604;48.616;9.548;2022-12-13T03:38:30;96083.81;;;-4.81;72.54
9139;BME280;4604;48.616;9.548;2022-12-13T03:40:59;96091.88;;;-4.89;73.20
9139;BME280;4604;48.616;9.548;2022-12-13T03:43:27;96082.72;;;-4.96;73.46
9139;BME280;4604;48.616;9.548;2022-12-13T03:45:54;96085.53;;;-5.21;74.21
9139;BME280;4604;48.616;9.548;2022-12-13T03:48:21;96076.63;;;-4.93;73.47
9139;BME280;4604;48.616;9.548;2022-12-13T03:50:48;96094.63;;;-4.54;72.08
9139;BME280;4604;48.616;9.548;2022-12-13T03:53:15;96074.47;;;-4.84;72.23
9139;BME280;4604;48.616;9.548;2022-12-13T03:55:43;96076.81;;;-4.98;72.84
9139;BME280;4604;48.616;9.548;2022-12-13T03:58:10;96075.69;;;-5.11;74.29
9139;BME280;4604;48.616;9.548;2022-12-13T04:00:36;96080.94;;;-5.14;74.66
9139;BME280;4604;48.616;9.548;2022-12-13T04:03:03;96070.16;;;-5.23;75.18
9139;BME280;4604;48.616;9.548;2022-12-13T04:05:30;96051.25;;;-5.22;75.59
9139;BME280;4604;48.616;9.548;2022-12-13T04:07:57;96071.19;;;-5.06;75.37
9139;BME280;4604;48.616;9.548;2022-12-13T04:10:24;96064.22;;;-5.04;75.42
9139;BME280;4604;48.616;9.548;2022-12-13T04:12:52;96070.97;;;-5.02;75.67
9139;BME280;4604;48.616;9.548;2022-12-13T04:15:36;96069.47;;;-4.87;74.97
9139;BME280;4604;48.616;9.548;2022-12-13T04:18:03;96045.50;;;-4.87;74.42
9139;BME280;4604;48.616;9.548;2022-12-13T04:20:30;96061.72;;;-5.06;75.23
9139;BME280;4604;48.616;9.548;2022-12-13T04:22:57;96061.66;;;-5.04;75.39
9139;BME280;4604;48.616;9.548;2022-12-13T04:25:24;96059.28;;;-5.09;75.65
9139;BME280;4604;48.616;9.548;2022-12-13T04:27:52;96075.03;;;-5.17;76.20
9139;BME280;4604;48.616;9.548;2022-12-13T04:30:18;96065.09;;;-5.24;76.63
9139;BME280;4604;48.616;9.548;2022-12-13T04:32:45;96065.25;;;-5.08;75.78
9139;BME280;4604;48.616;9.548;2022-12-13T04:35:12;96062.53;;;-5.05;75.25
9139;BME280;4604;48.616;9.548;2022-12-13T04:37:38;96052.59;;;-4.92;75.08
9139;BME280;4604;48.616;9.548;2022-12-13T04:40:06;96038.09;;;-4.95;74.44
9139;BME280;4604;48.616;9.548;2022-12-13T04:42:33;96018.13;;;-5.29;74.28
9139;BME280;4604;48.616;9.548;2022-12-13T04:45:01;96055.94;;;-5.11;74.98
9139;BME280;4604;48.616;9.548;2022-12-13T04:47:28;96052.09;;;-5.21;75.50
9139;BME280;4604;48.616;9.548;2022-12-13T04:49:54;96049.44;;;-5.20;75.80
9139;BME280;4604;48.616;9.548;2022-12-13T04:52:21;96060.25;;;-5.11;75.34
9139;BME280;4604;48.616;9.548;2022-12-13T04:54:48;96069.03;;;-4.97;74.46
9139;BME280;4604;48.616;9.548;2022-12-13T04:57:15;96028.41;;;-5.09;73.05
9139;BME280;4604;48.616;9.548;2022-12-13T04:59:41;96059.00;;;-4.82;72.37
9139;BME280;4604;48.616;9.548;2022-12-13T05:02:12;96058.91;;;-4.81;72.64
9139;BME280;4604;48.616;9.548;2022-12-13T05:04:39;96062.94;;;-4.94;73.15
9139;BME280;4604;48.616;9.548;2022-12-13T05:07:06;96043.06;;;-5.11;73.97
9139;BME280;4604;48.616;9.548;2022-12-13T05:09:33;96043.72;;;-5.06;74.09
9139;BME280;4604;48.616;9.548;2022-12-13T05:11:59;96050.00;;;-5.13;74.57
9139;BME280;4604;48.616;9.548;2022-12-13T05:14:26;96059.47;;;-5.13;74.28
9139;BME280;4604;48.616;9.548;2022-12-13T05:16:53;96050.47;;;-5.24;74.90
9139;BME280;4604;48.616;9.548;2022-12-13T05:19:21;96048.47;;;-5.38;75.24
9139;BME280;4604;48.616;9.548;2022-12-13T05:21:48;96052.47;;;-5.30;75.21
9139;BME280;4604;48.616;9.548;2022-12-13T05:24:15;96051.19;;;-5.20;73.23
9139;BME280;4604;48.616;9.548;2022-12-13T05:26:42;96047.31;;;-5.10;73.08
9139;BME280;4604;48.616;9.548;2022-12-13T05:29:09;96048.47;;;-5.17;73.23
9139;BME280;4604;48.616;9.548;2022-12-13T05:31:35;96047.38;;;-5.11;73.04
9139;BME280;4604;48.616;9.548;2022-12-13T05:34:02;96055.34;;;-5.18;73.21
9139;BME280;4604;48.616;9.548;2022-12-13T05:36:30;96050.59;;;-5.27;73.66
9139;BME280;4604;48.616;9.548;2022-12-13T05:38:57;96049.00;;;-5.09;72.73
9139;BME280;4604;48.616;9.548;2022-12-13T05:41:26;96047.25;;;-4.50;68.10
9139;BME280;4604;48.616;9.548;2022-12-13T05:43:54;96047.09;;;-4.85;69.86
9139;BME280;4604;48.616;9.548;2022-12-13T05:46:22;96049.00;;;-5.09;71.30
9139;BME280;4604;48.616;9.548;2022-12-13T05:48:48;96051.03;;;-5.17;71.93
9139;BME280;4604;48.616;9.548;2022-12-13T05:51:15;96043.94;;;-5.31;72.63
9139;BME280;4604;48.616;9.548;2022-12-13T05:53:44;96041.94;;;-5.45;73.52
9139;BME280;4604;48.616;9.548;2022-12-13T05:56:11;96032.94;;;-5.55;73.48
9139;BME280;4604;48.616;9.548;2022-12-13T05:58:39;96026.56;;;-5.46;73.72
9139;BME280;4604;48.616;9.548;2022-12-13T06:01:07;96044.13;;;-5.35;74.02
9139;BME280;4604;48.616;9.548;2022-12-13T06:03:35;96036.66;;;-5.42;74.06
9139;BME280;4604;48.616;9.548;2022-12-13T06:06:02;96047.38;;;-5.32;74.05
9139;BME280;4604;48.616;9.548;2022-12-13T06:08:29;96029.19;;;-5.27;73.23
9139;BME280;4604;48.616;9.548;2022-12-13T06:10:58;96035.31;;;-5.30;73.12
9139;BME280;4604;48.616;9.548;2022-12-13T06:13:26;96036.22;;;-5.31;73.08
9139;BME280;4604;48.616;9.548;2022-12-13T06:15:53;96028.88;;;-5.40;73.00
9139;BME280;4604;48.616;9.548;2022-12-13T06:18:20;96030.88;;;-5.26;72.33
9139;BME280;4604;48.616;9.548;2022-12-13T06:20:54;96024.31;;;-5.33;72.48
9139;BME280;4604;48.616;9.548;2022-12-13T06:23:21;96045.41;;;-5.25;72.33
9139;BME280;4604;48.616;9.548;2022-12-13T06:25:48;96041.16;;;-5.26;72.12
9139;BME280;4604;48.616;9.548;2022-12-13T06:28:16;96047.91;;;-5.24;72.08
9139;BME280;4604;48.616;9.548;2022-12-13T06:30:42;96042.59;;;-5.00;70.69
9139;BME280;4604;48.616;9.548;2022-12-13T06:33:09;96048.84;;;-5.06;71.13
9139;BME280;4604;48.616;9.548;2022-12-13T06:35:36;95999.84;;;-5.22;70.85
9139;BME280;4604;48.616;9.548;2022-12-13T06:38:03;96034.38;;;-5.08;70.63
9139;BME280;4604;48.616;9.548;2022-12-13T06:40:30;96032.28;;;-4.80;69.76
9139;BME280;4604;48.616;9.548;2022-12-13T06:42:58;96034.88;;;-5.00;70.55
9139;BME280;4604;48.616;9.548;2022-12-13T06:45:26;96023.66;;;-5.18;70.97
9139;BME280;4604;48.616;9.548;2022-12-13T06:47:54;96025.31;;;-5.17;71.18
9139;BME280;4604;48.616;9.548;2022-12-13T06:50:21;96017.34;;;-5.11;70.69
9139;BME280;4604;48.616;9.548;2022-12-13T06:52:48;96030.66;;;-5.01;71.16
9139;BME280;4604;48.616;9.548;2022-12-13T06:55:14;96041.84;;;-5.02;71.12
9139;BME280;4604;48.616;9.548;2022-12-13T06:57:41;96031.03;;;-5.10;70.78
9139;BME280;4604;48.616;9.548;2022-12-13T07:00:09;96032.28;;;-5.19;70.67
9139;BME280;4604;48.616;9.548;2022-12-13T07:02:38;96036.28;;;-5.12;70.77
9139;BME280;4604;48.616;9.548;2022-12-13T07:05:05;96038.75;;;-5.10;70.65
9139;BME280;4604;48.616;9.548;2022-12-13T07:07:32;96042.44;;;-5.16;70.51
9139;BME280;4604;48.616;9.548;2022-12-13T07:09:59;96036.31;;;-5.13;69.68
9139;BME280;4604;48.616;9.548;2022-12-13T07:12:25;96047.50;;;-4.94;69.57
9139;BME280;4604;48.616;9.548;2022-12-13T07:14:52;96034.06;;;-5.01;69.23
9139;BME280;4604;48.616;9.548;2022-12-13T07:17:19;96039.97;;;-4.99;69.56
9139;BME280;4604;48.616;9.548;2022-12-13T07:19:47;96044.63;;;-5.07;68.72
9139;BME280;4604;48.616;9.548;2022-12-13T07:22:13;96053.59;;;-4.97;68.64
9139;BME280;4604;48.616;9.548;2022-12-13T07:24:40;96049.66;;;-4.85;68.43
9139;BME280;4604;48.616;9.548;2022-12-13T07:27:07;96056.47;;;-4.84;68.72
9139;BME280;4604;48.616;9.548;2022-12-13T07:29:33;96054.88;;;-4.86;68.66
9139;BME280;4604;48.616;9.548;2022-12-13T07:32:00;96056.22;;;-4.78;68.85
9139;BME280;4604;48.616;9.548;2022-12-13T07:34:27;96059.47;;;-4.74;68.56
9139;BME280;4604;48.616;9.548;2022-12-13T07:36:55;96069.00;;;-4.76;68.76
9139;BME280;4604;48.616;9.548;2022-12-13T07:39:22;96068.81;;;-4.71;68.57
9139;BME280;4604;48.616;9.548;2022-12-13T07:41:52;96048.59;;;-4.81;67.79
9139;BME280;4604;48.616;9.548;2022-12-13T07:44:19;96051.28;;;-4.82;68.22
9139;BME280;4604;48.616;9.548;2022-12-13T07:46:45;96056.28;;;-4.79;68.23
9139;BME280;4604;48.616;9.548;2022-12-13T07:49:12;96059.25;;;-4.88;68.16
9139;BME280;4604;48.616;9.548;2022-12-13T07:51:39;96057.69;;;-4.72;67.88
9139;BME280;4604;48.616;9.548;2022-12-13T07:54:07;96052.97;;;-4.62;68.55
9139;BME280;4604;48.616;9.548;2022-12-13T07:56:34;96067.38;;;-4.58;68.64
9139;BME280;4604;48.616;9.548;2022-12-13T07:59:00;96073.41;;;-4.59;68.33
9139;BME280;4604;48.616;9.548;2022-12-13T08:01:27;96064.72;;;-4.57;67.85
9139;BME280;4604;48.616;9.548;2022-12-13T08:03:54;96071.78;;;-4.05;65.42
9139;BME280;4604;48.616;9.548;2022-12-13T08:06:21;96079.56;;;-4.24;65.77
9139;BME280;4604;48.616;9.548;2022-12-13T08:08:48;96080.31;;;-4.41;66.35
9139;BME280;4604;48.616;9.548;2022-12-13T08:11:17;96081.09;;;-4.39;66.78
9139;BME280;4604;48.616;9.548;2022-12-13T08:13:44;96076.63;;;-4.35;66.31
9139;BME280;4604;48.616;9.548;2022-12-13T08:16:11;96089.09;;;-4.26;66.24
9139;BME280;4604;48.616;9.548;2022-12-13T08:18:42;96089.91;;;-4.06;66.45
9139;BME280;4604;48.616;9.548;2022-12-13T08:21:09;96073.47;;;-4.04;65.97
9139;BME280;4604;48.616;9.548;2022-12-13T08:23:36;96083.00;;;-3.87;66.48
9139;BME280;4604;48.616;9.548;2022-12-13T08:26:04;96071.91;;;-3.89;66.33
9139;BME280;4604;48.616;9.548;2022-12-13T08:28:33;96090.63;;;-3.85;66.61
9139;BME280;4604;48.616;9.548;2022-12-13T08:31:03;96090.88;;;-3.90;66.97
9139;BME280;4604;48.616;9.548;2022-12-13T08:33:31;96073.25;;;-3.99;67.49
9139;BME280;4604;48.616;9.548;2022-12-13T08:36:06;96086.91;;;-3.97;67.38
9139;BME280;4604;48.616;9.548;2022-12-13T08:38:33;96089.66;;;-3.83;67.32
9139;BME280;4604;48.616;9.548;2022-12-13T08:40:59;96087.75;;;-3.97;67.11
9139;BME280;4604;48.616;9.548;2022-12-13T08:43:26;96099.44;;;-3.90;67.76
9139;BME280;4604;48.616;9.548;2022-12-13T08:45:54;96103.25;;;-3.79;67.56
9139;BME280;4604;48.616;9.548;2022-12-13T08:48:21;96095.22;;;-3.73;67.18
9139;BME280;4604;48.616;9.548;2022-12-13T08:50:47;96084.66;;;-3.86;65.86
9139;BME280;4604;48.616;9.548;2022-12-13T08:53:14;96078.63;;;-3.68;65.96
9139;BME280;4604;48.616;9.548;2022-12-13T08:55:41;96089.19;;;-3.55;65.43
9139;BME280;4604;48.616;9.548;2022-12-13T08:58:08;96085.25;;;-3.45;65.44
9139;BME280;4604;48.616;9.548;2022-12-13T09:00:35;96083.81;;;-3.33;65.56
9139;BME280;4604;48.616;9.548;2022-12-13T09:03:04;96095.50;;;-3.08;65.29
9139;BME280;4604;48.616;9.548;2022-12-13T09:05:31;96094.06;;;-2.96;63.30
9139;BME280;4604;48.616;9.548;2022-12-13T09:07:58;96098.63;;;-3.02;64.43
9139;BME280;4604;48.616;9.548;2022-12-13T09:10:27;96095.81;;;-2.97;64.60
9139;BME280;4604;48.616;9.548;2022-12-13T09:12:54;96087.94;;;-2.78;63.32
9139;BME280;4604;48.616;9.548;2022-12-13T09:15:21;96079.00;;;-2.88;64.09
9139;BME280;4604;48.616;9.548;2022-12-13T09:17:48;96072.13;;;-2.88;64.50
9139;BME280;4604;48.616;9.548;2022-12-13T09:20:17;96076.38;;;-2.53;62.60
9139;BME280;4604;48.616;9.548;2022-12-13T09:22:44;96073.84;;;-2.55;63.16
9139;BME280;4604;48.616;9.548;2022-12-13T09:25:11;96075.25;;;-2.49;62.24
9139;BME280;4604;48.616;9.548;2022-12-13T09:27:37;96064.09;;;-2.66;62.55
9139;BME280;4604;48.616;9.548;2022-12-13T09:30:05;96055.72;;;-2.71;63.66
9139;BME280;4604;48.616;9.548;2022-12-13T09:32:32;96074.78;;;-2.56;63.79
9139;BME280;4604;48.616;9.548;2022-12-13T09:34:59;96074.31;;;-2.15;58.58
9139;BME280;4604;48.616;9.548;2022-12-13T09:37:27;96053.72;;;-2.48;59.27
9139;BME280;4604;48.616;9.548;2022-12-13T09:39:54;96070.81;;;-2.14;59.16
9139;BME280;4604;48.616;9.548;2022-12-13T09:42:22;96077.41;;;-2.24;59.05
9139;BME280;4604;48.616;9.548;2022-12-13T09:44:52;96072.72;;;-2.18;59.95
9139;BME280;4604;48.616;9.548;2022-12-13T09:47:30;96077.06;;;-2.18;59.81
9139;BME280;4604;48.616;9.548;2022-12-13T09:50:00;96072.91;;;-2.21;58.82
9139;BME280;4604;48.616;9.548;2022-12-13T09:52:35;96079.75;;;-2.04;59.92
9139;BME280;4604;48.616;9.548;2022-12-13T09:55:15;96073.25;;;-1.95;59.53
9139;BME280;4604;48.616;9.548;2022-12-13T09:57:44;96075.63;;;-1.76;58.84
9139;BME280;4604;48.616;9.548;2022-12-13T10:00:14;96083.16;;;-1.87;57.50
9139;BME280;4604;48.616;9.548;2022-12-13T10:02:44;96067.66;;;-1.87;58.26
9139;BME280;4604;48.616;9.548;2022-12-13T10:05:18;96072.69;;;-1.54;55.68
9139;BME280;4604;48.616;9.548;2022-12-13T10:07:48;96080.47;;;-1.70;55.79
9139;BME280;4604;48.616;9.548;2022-12-13T10:10:15;96074.38;;;-1.69;56.32
9139;BME280;4604;48.616;9.548;2022-12-13T10:12:44;96065.38;;;-1.78;56.57
9139;BME280;4604;48.616;9.548;2022-12-13T10:15:16;96066.63;;;-1.69;57.00
9139;BME280;4604;48.616;9.548;2022-12-13T10:17:46;96074.25;;;-1.52;57.62
9139;BME280;4604;48.616;9.548;2022-12-13T10:20:17;96057.09;;;-1.53;57.10
9139;BME280;4604;48.616;9.548;2022-12-13T10:22:44;96068.31;;;-1.38;56.36
9139;BME280;4604;48.616;9.548;2022-12-13T10:25:13;96063.66;;;-1.47;55.74
9139;BME280;4604;48.616;9.548;2022-12-13T10:27:42;96047.31;;;-1.47;56.08
9139;BME280;4604;48.616;9.548;2022-12-13T10:30:11;96056.47;;;-1.42;55.96
9139;BME280;4604;48.616;9.548;2022-12-13T10:32:44;96045.28;;;-1.42;56.10
9139;BME280;4604;48.616;9.548;2022-12-13T10:35:21;96058.63;;;-1.20;56.26
9139;BME280;4604;48.616;9.548;2022-12-13T10:37:49;96055.59;;;-1.26;56.36
9139;BME280;4604;48.616;9.548;2022-12-13T10:40:26;96049.44;;;-1.10;55.81
9139;BME280;4604;48.616;9.548;2022-12-13T10:43:14;96047.41;;;-1.04;56.26
9139;BME280;4604;48.616;9.548;2022-12-13T10:45:42;96020.38;;;-1.15;56.88
9139;BME280;4604;48.616;9.548;2022-12-13T10:48:18;96048.63;;;-0.96;56.64
9139;BME280;4604;48.616;9.548;2022-12-13T10:50:56;96051.50;;;-0.86;56.74
9139;BME280;4604;48.616;9.548;2022-12-13T10:53:28;96050.41;;;-0.82;56.87
9139;BME280;4604;48.616;9.548;2022-12-13T10:55:57;96040.03;;;-0.82;56.06
9139;BME280;4604;48.616;9.548;2022-12-13T10:58:34;96045.69;;;-0.75;55.77
9139;BME280;4604;48.616;9.548;2022-12-13T11:01:10;96043.47;;;-0.67;56.05
9139;BME280;4604;48.616;9.548;2022-12-13T11:03:37;96036.31;;;-0.63;55.44
9139;BME280;4604;48.616;9.548;2022-12-13T11:06:05;96028.94;;;-0.55;54.57
9139;BME280;4604;48.616;9.548;2022-12-13T11:08:38;96030.97;;;-0.46;55.00
9139;BME280;4604;48.616;9.548;2022-12-13T11:11:07;96021.78;;;-0.52;54.33
9139;BME280;4604;48.616;9.548;2022-12-13T11:13:36;96012.72;;;-0.73;50.84
9139;BME280;4604;48.616;9.548;2022-12-13T11:16:18;96010.88;;;-0.71;50.59
9139;BME280;4604;48.616;9.548;2022-12-13T11:18:50;96015.03;;;-0.69;51.13
9139;BME280;4604;48.616;9.548;2022-12-13T11:21:22;96024.09;;;-0.47;51.65
9139;BME280;4604;48.616;9.548;2022-12-13T11:23:52;96020.69;;;-0.62;51.89
9139;BME280;4604;48.616;9.548;2022-12-13T11:26:22;96025.59;;;-0.57;52.26
9139;BME280;4604;48.616;9.548;2022-12-13T11:29:10;96015.44;;;-0.46;53.67
9139;BME280;4604;48.616;9.548;2022-12-13T11:31:46;96013.47;;;-0.43;53.50
9139;BME280;4604;48.616;9.548;2022-12-13T11:34:25;96006.81;;;-0.05;51.66
9139;BME280;4604;48.616;9.548;2022-12-13T11:37:00;96012.47;;;-0.13;51.22
9139;BME280;4604;48.616;9.548;2022-12-13T11:39:35;96005.59;;;-0.27;51.45
9139;BME280;4604;48.616;9.548;2022-12-13T11:42:20;96001.53;;;-0.45;53.12
9139;BME280;4604;48.616;9.548;2022-12-13T11:44:57;95949.59;;;-0.85;53.83
9139;BME280;4604;48.616;9.548;2022-12-13T11:47:29;96001.81;;;-0.50;53.82
9139;BME280;4604;48.616;9.548;2022-12-13T11:50:02;95992.56;;;-0.12;51.80
9139;BME280;4604;48.616;9.548;2022-12-13T11:52:35;95991.13;;;-0.31;51.97
9139;BME280;4604;48.616;9.548;2022-12-13T11:55:10;95983.84;;;-0.38;53.40
9139;BME280;4604;48.616;9.548;2022-12-13T11:57:45;95987.88;;;-0.34;53.54
9139;BME280;4604;48.616;9.548;2022-12-13T12:00:28;95987.31;;;-0.25;51.72
9139;BME280;4604;48.616;9.548;2022-12-13T12:03:02;95980.28;;;-0.23;51.84
9139;BME280;4604;48.616;9.548;2022-12-13T12:05:34;95984.91;;;-0.14;51.54
9139;BME280;4604;48.616;9.548;2022-12-13T12:08:05;95993.22;;;-0.09;51.67
9139;BME280;4604;48.616;9.548;2022-12-13T12:10:40;95998.00;;;-0.03;52.48
9139;BME280;4604;48.616;9.548;2022-12-13T12:13:15;95991.59;;;0.03;50.01
9139;BME280;4604;48.616;9.548;2022-12-13T12:15:45;95999.34;;;-0.10;49.39
9139;BME280;4604;48.616;9.548;2022-12-13T12:18:16;96002.59;;;-0.20;49.98
9139;BME280;4604;48.616;9.548;2022-12-13T12:20:52;95997.97;;;-0.30;49.16
9139;BME280;4604;48.616;9.548;2022-12-13T12:23:32;96002.59;;;-0.20;49.40
9139;BME280;4604;48.616;9.548;2022-12-13T12:26:05;95984.19;;;-0.03;49.62
9139;BME280;4604;48.616;9.548;2022-12-13T12:28:53;95986.91;;;-0.05;50.40
9139;BME280;4604;48.616;9.548;2022-12-13T12:31:28;95968.03;;;-0.07;49.98
9139;BME280;4604;48.616;9.548;2022-12-13T12:34:02;95972.66;;;-0.12;50.03
9139;BME280;4604;48.616;9.548;2022-12-13T12:36:47;95987.00;;;-0.06;48.59
9139;BME280;4604;48.616;9.548;2022-12-13T12:39:42;95977.97;;;-0.01;48.13
9139;BME280;4604;48.616;9.548;2022-12-13T12:45:25;95983.72;;;0.05;49.70
9139;BME280;4604;48.616;9.548;2022-12-13T12:48:05;95983.25;;;0.12;49.59
9139;BME280;4604;48.616;9.548;2022-12-13T12:50:43;95976.56;;;0.08;48.66
9139;BME280;4604;48.616;9.548;2022-12-13T12:53:35;95969.25;;;0.15;48.67
9139;BME280;4604;48.616;9.548;2022-12-13T12:56:22;95969.94;;;0.17;49.88
9139;BME280;4604;48.616;9.548;2022-12-13T12:58:57;95969.28;;;0.28;48.74
9139;BME280;4604;48.616;9.548;2022-12-13T13:01:39;95971.91;;;0.13;48.43
9139;BME280;4604;48.616;9.548;2022-12-13T13:04:14;95970.50;;;0.22;48.05
9139;BME280;4604;48.616;9.548;2022-12-13T13:06:47;95966.00;;;0.11;47.87
9139;BME280;4604;48.616;9.548;2022-12-13T13:09:17;95966.66;;;0.15;48.14
9139;BME280;4604;48.616;9.548;2022-12-13T13:11:46;95957.25;;;-0.01;47.34
9139;BME280;4604;48.616;9.548;2022-12-13T13:14:29;95954.34;;;0.04;48.23
9139;BME280;4604;48.616;9.548;2022-12-13T13:16:57;95944.63;;;0.08;48.49
9139;BME280;4604;48.616;9.548;2022-12-13T13:19:43;95919.00;;;0.03;47.70
9139;BME280;4604;48.616;9.548;2022-12-13T13:22:32;95937.44;;;-0.02;48.23
9139;BME280;4604;48.616;9.548;2022-12-13T13:25:19;95956.63;;;-0.04;48.81
9139;BME280;4604;48.616;9.548;2022-12-13T13:27:48;95953.56;;;0.16;48.06
9139;BME280;4604;48.616;9.548;2022-12-13T13:30:18;95945.47;;;0.21;47.86
9139;BME280;4604;48.616;9.548;2022-12-13T13:32:48;95951.91;;;0.15;46.41
9139;BME280;4604;48.616;9.548;2022-12-13T13:41:53;95945.88;;;-0.12;48.37
9139;BME280;4604;48.616;9.548;2022-12-13T13:44:54;95937.06;;;-0.37;47.78
9139;BME280;4604;48.616;9.548;2022-12-13T13:47:34;95946.66;;;-0.52;49.23
9139;BME280;4604;48.616;9.548;2022-12-13T13:53:33;95942.72;;;-0.72;49.65
9139;BME280;4604;48.616;9.548;2022-12-13T13:56:23;95931.31;;;-0.69;49.67
9139;BME280;4604;48.616;9.548;2022-12-13T14:02:33;95919.06;;;-1.09;48.51